Time;durP1;ratioP1;P1;durP2;ratioP2;P2;SDS_P1;SDS_P2;PMS_P1;PMS_P2;Temp;Humidity;BMP_temperature;BMP_pressure;BME280_temperature;BME280_humidity;BME280_pressure;Samples;Min_cycle;Max_cycle;Signal;HPM_P1;HPM_P2
2021/05/01 00:01:12;;;;;;;29.40;21.93;;;11.20;52.40;;;;;;6156701;23;20155;-89
2021/05/01 00:03:38;;;;;;;23.90;21.40;;;11.30;52.80;;;;;;6158292;23;20203;-89
2021/05/01 00:06:03;;;;;;;25.77;22.10;;;11.40;52.80;;;;;;6156498;23;20162;-89
2021/05/01 00:09:04;;;;;;;24.90;21.43;;;11.40;52.60;;;;;;6156398;23;20167;-89
2021/05/01 00:11:30;;;;;;;21.98;19.60;;;11.20;52.40;;;;;;6156322;23;20155;-89
2021/05/01 00:13:58;;;;;;;23.17;20.73;;;11.30;52.30;;;;;;6156364;23;20166;-89
2021/05/01 00:16:27;;;;;;;26.02;21.13;;;11.30;52.20;;;;;;6156319;23;20191;-90
2021/05/01 00:18:53;;;;;;;29.88;25.75;;;11.40;52.00;;;;;;6157075;23;20175;-89
2021/05/01 00:21:28;;;;;;;26.17;22.67;;;11.30;51.80;;;;;;6157050;23;20159;-89
2021/05/01 00:23:54;;;;;;;25.40;20.77;;;11.10;52.20;;;;;;6156896;23;20174;-89
2021/05/01 00:26:28;;;;;;;24.43;21.83;;;11.40;52.40;;;;;;6156774;23;20152;-89
2021/05/01 00:28:54;;;;;;;22.60;20.20;;;11.10;52.20;;;;;;6158302;23;20142;-90
2021/05/01 00:31:20;;;;;;;28.80;24.37;;;11.00;52.60;;;;;;6157161;23;20160;-89
2021/05/01 00:33:48;;;;;;;23.50;20.40;;;10.90;52.90;;;;;;6156418;23;20191;-88
2021/05/01 00:36:14;;;;;;;24.67;21.92;;;10.60;53.30;;;;;;6156531;23;20270;-89
2021/05/01 00:38:40;;;;;;;23.97;21.43;;;10.70;53.70;;;;;;6156732;23;20176;-90
2021/05/01 00:41:06;;;;;;;28.50;24.30;;;10.70;53.50;;;;;;6157203;23;20152;-94
2021/05/01 00:43:31;;;;;;;32.37;25.47;;;10.70;53.30;;;;;;6158594;23;20453;-95
2021/05/01 00:46:07;;;;;;;31.60;25.20;;;10.90;54.40;;;;;;6158639;23;20157;-93
2021/05/01 00:48:33;;;;;;;28.25;24.25;;;10.60;54.10;;;;;;6158525;23;20155;-94
2021/05/01 00:51:31;;;;;;;28.55;24.70;;;10.60;53.80;;;;;;6159375;23;20160;-95
2021/05/01 00:53:58;;;;;;;27.33;23.33;;;11.00;54.20;;;;;;6158288;23;20242;-95
2021/05/01 00:56:33;;;;;;;28.55;24.58;;;11.00;53.50;;;;;;6157759;23;20187;-94
2021/05/01 00:58:59;;;;;;;28.02;24.48;;;10.90;53.10;;;;;;6159452;23;20174;-94
2021/05/01 01:01:46;;;;;;;25.48;22.80;;;10.90;52.80;;;;;;6160860;23;20170;-94
2021/05/01 01:04:12;;;;;;;35.00;26.33;;;11.10;52.80;;;;;;6160190;23;20580;-93
2021/05/01 01:07:17;;;;;;;29.53;25.07;;;11.00;52.90;;;;;;6160718;23;20174;-95
2021/05/01 01:09:42;;;;;;;42.97;31.50;;;11.10;53.60;;;;;;6160908;23;20194;-92
2021/05/01 01:12:08;;;;;;;36.30;26.40;;;10.70;53.90;;;;;;6159991;23;20190;-93
2021/05/01 01:14:40;;;;;;;24.70;20.93;;;10.60;55.10;;;;;;6159806;23;20160;-94
2021/05/01 01:17:06;;;;;;;27.70;23.05;;;10.40;55.10;;;;;;6159478;23;20253;-94
2021/05/01 01:19:34;;;;;;;30.57;24.80;;;10.60;55.00;;;;;;6160263;23;20572;-95
2021/05/01 01:22:18;;;;;;;26.60;21.70;;;10.60;54.30;;;;;;6160532;23;20152;-94
2021/05/01 01:24:45;;;;;;;25.23;21.35;;;10.70;53.60;;;;;;6159888;23;20641;-95
2021/05/01 01:27:11;;;;;;;28.27;25.17;;;10.90;53.30;;;;;;6160163;23;20179;-94
2021/05/01 01:29:56;;;;;;;30.10;23.30;;;10.90;53.10;;;;;;6160466;23;20183;-94
2021/05/01 01:32:22;;;;;;;28.92;23.42;;;10.80;53.50;;;;;;6160813;23;20151;-94
2021/05/01 01:34:53;;;;;;;31.10;25.93;;;10.90;54.20;;;;;;6160513;23;20230;-94
2021/05/01 01:37:19;;;;;;;26.30;23.38;;;11.00;53.60;;;;;;6160392;23;20615;-94
2021/05/01 01:40:05;;;;;;;31.57;24.77;;;11.10;53.10;;;;;;6160653;23;20242;-94
2021/05/01 01:42:31;;;;;;;28.17;24.17;;;11.30;53.20;;;;;;6160660;23;20663;-94
2021/05/01 01:44:56;;;;;;;26.17;23.13;;;11.20;52.70;;;;;;6160504;23;20152;-95
2021/05/01 01:48:01;;;;;;;30.20;24.43;;;11.20;52.30;;;;;;6160489;23;20471;-95
2021/05/01 01:50:27;;;;;;;32.38;26.10;;;11.20;52.20;;;;;;6160623;23;20587;-94
2021/05/01 01:52:54;;;;;;;34.72;25.25;;;11.40;52.20;;;;;;6160175;23;20160;-89
2021/05/01 01:55:35;;;;;;;32.55;25.58;;;11.30;52.50;;;;;;6157742;23;20587;-89
2021/05/01 01:58:26;;;;;;;33.83;26.35;;;11.20;52.20;;;;;;6158280;23;20191;-89
2021/05/01 02:00:53;;;;;;;30.60;25.65;;;11.10;52.30;;;;;;6158098;23;20156;-92
2021/05/01 02:03:20;;;;;;;33.90;27.80;;;11.20;52.30;;;;;;6161233;23;20207;-88
2021/05/01 02:05:46;;;;;;;34.00;26.17;;;11.30;52.90;;;;;;6158242;23;20156;-89
2021/05/01 02:08:31;;;;;;;28.70;23.10;;;11.10;52.20;;;;;;6157658;23;20186;-88
2021/05/01 02:10:56;;;;;;;32.58;25.77;;;11.00;52.20;;;;;;6132045;23;20160;-88
2021/05/01 02:13:42;;;;;;;26.37;22.50;;;11.10;52.50;;;;;;6157446;23;20150;-88
2021/05/01 02:16:08;;;;;;;27.95;24.23;;;11.20;52.30;;;;;;6157636;23;20252;-89
2021/05/01 02:18:34;;;;;;;29.80;24.87;;;11.40;52.40;;;;;;6157362;23;20140;-88
2021/05/01 02:21:00;;;;;;;31.67;25.42;;;11.40;52.30;;;;;;6157568;23;20372;-88
2021/05/01 02:23:26;;;;;;;30.20;24.40;;;11.20;52.70;;;;;;6157342;23;20144;-88
2021/05/01 02:26:10;;;;;;;34.73;26.73;;;11.40;53.10;;;;;;6157364;23;20380;-89
2021/05/01 02:28:36;;;;;;;32.45;25.55;;;11.30;52.50;;;;;;6157646;23;20463;-89
2021/05/01 02:31:21;;;;;;;28.23;24.47;;;11.20;52.40;;;;;;6157753;23;20172;-89
2021/05/01 02:33:46;;;;;;;29.52;26.17;;;11.30;52.20;;;;;;6157499;23;20507;-87
2021/05/01 02:36:34;;;;;;;30.70;25.67;;;11.30;52.50;;;;;;6157572;23;20195;-88
2021/05/01 02:38:59;;;;;;;26.80;23.25;;;11.40;52.50;;;;;;6158676;23;20159;-89
2021/05/01 02:41:25;;;;;;;28.17;23.50;;;11.40;52.40;;;;;;6157652;23;20148;-88
2021/05/01 02:43:51;;;;;;;29.50;25.07;;;11.50;52.60;;;;;;6157607;23;20150;-88
2021/05/01 02:46:17;;;;;;;29.20;24.58;;;11.30;52.30;;;;;;6157563;23;20226;-88
2021/05/01 02:48:43;;;;;;;27.90;23.03;;;11.40;52.20;;;;;;6157445;23;20187;-89
2021/05/01 02:54:30;;;;;;;27.48;23.10;;;11.70;51.90;;;;;;6158849;23;20260;-90
2021/05/01 02:56:56;;;;;;;25.60;21.60;;;11.50;51.50;;;;;;6158519;23;20201;-89
2021/05/01 02:59:41;;;;;;;26.57;23.23;;;11.40;52.00;;;;;;6132800;23;20526;-88
2021/05/01 03:02:07;;;;;;;23.15;20.63;;;11.20;51.70;;;;;;6132777;23;20179;-89
2021/05/01 03:04:45;;;;;;;25.70;22.17;;;11.30;51.90;;;;;;6132561;23;20159;-88
2021/05/01 03:07:11;;;;;;;29.80;24.40;;;11.50;51.80;;;;;;6132763;23;20242;-89
2021/05/01 03:09:37;;;;;;;31.10;24.30;;;11.70;52.00;;;;;;6132635;23;20580;-88
2021/05/01 03:12:23;;;;;;;25.00;20.93;;;11.30;51.90;;;;;;6133106;23;20167;-89
2021/05/01 03:14:48;;;;;;;24.60;20.63;;;11.20;52.50;;;;;;6132754;23;20167;-89
2021/05/01 03:17:15;;;;;;;22.33;19.20;;;11.30;52.10;;;;;;6133048;23;20274;-89
2021/05/01 03:22:51;;;;;;;23.48;19.75;;;11.50;51.90;;;;;;6158583;23;20136;-88
2021/05/01 03:25:19;;;;;;;21.30;19.00;;;11.70;51.50;;;;;;6132909;23;20598;-89
2021/05/01 03:27:45;;;;;;;20.58;18.38;;;11.50;51.00;;;;;;6132770;23;20666;-89
2021/05/01 03:30:27;;;;;;;19.88;17.48;;;11.60;50.90;;;;;;6133118;23;20179;-89
2021/05/01 03:32:53;;;;;;;19.92;16.10;;;11.70;50.70;;;;;;6133063;23;20230;-89
2021/05/01 03:35:40;;;;;;;23.60;18.00;;;11.70;50.70;;;;;;6132597;23;20186;-88
2021/05/01 03:38:06;;;;;;;21.15;17.52;;;11.50;50.60;;;;;;6132592;23;20156;-89
2021/05/01 03:41:20;;;;;;;24.63;19.07;;;11.50;51.00;;;;;;6132547;23;20156;-90
2021/05/01 03:43:45;;;;;;;28.33;22.13;;;11.50;50.80;;;;;;6132379;23;20154;-88
2021/05/01 03:46:35;;;;;;;20.63;18.27;;;11.20;51.50;;;;;;6133187;23;20583;-88
2021/05/01 03:49:01;;;;;;;21.52;16.90;;;10.90;52.70;;;;;;6131796;23;20242;-90
2021/05/01 03:51:27;;;;;;;22.90;20.00;;;10.80;53.30;;;;;;6132199;23;20179;-88
2021/05/01 03:54:12;;;;;;;20.93;18.20;;;10.90;53.00;;;;;;6132557;23;20242;-90
2021/05/01 03:56:44;;;;;;;21.80;17.45;;;10.90;52.90;;;;;;6131997;23;20435;-89
2021/05/01 03:59:10;;;;;;;18.88;16.88;;;11.00;52.90;;;;;;6132152;23;20179;-88
2021/05/01 04:01:36;;;;;;;18.13;16.20;;;11.30;52.40;;;;;;6132307;23;20151;-89
2021/05/01 04:04:04;;;;;;;22.47;19.30;;;11.30;52.00;;;;;;6132464;23;20408;-90
2021/05/01 04:06:30;;;;;;;22.63;19.42;;;11.40;52.00;;;;;;6132439;23;20505;-89
2021/05/01 04:09:33;;;;;;;17.47;15.67;;;11.00;52.00;;;;;;6132302;23;20158;-88
2021/05/01 04:12:00;;;;;;;19.13;17.08;;;11.10;52.00;;;;;;6132630;23;20155;-88
2021/05/01 04:14:52;;;;;;;18.23;16.30;;;11.20;51.70;;;;;;6132627;23;20162;-88
2021/05/01 04:17:18;;;;;;;19.20;17.10;;;11.30;51.40;;;;;;6131911;23;20291;-88
2021/05/01 04:19:44;;;;;;;18.97;16.77;;;11.40;51.20;;;;;;6132041;23;20171;-88
2021/05/01 04:22:35;;;;;;;17.73;15.93;;;11.30;51.00;;;;;;6132489;23;20210;-89
2021/05/01 04:25:01;;;;;;;18.63;16.73;;;11.70;50.80;;;;;;6132168;23;20152;-88
2021/05/01 04:27:38;;;;;;;20.27;18.17;;;11.90;50.80;;;;;;6132154;23;20230;-88
2021/05/01 04:30:08;;;;;;;21.80;19.50;;;11.80;50.50;;;;;;6132457;23;20378;-88
2021/05/01 04:32:35;;;;;;;20.27;17.60;;;11.70;50.40;;;;;;6131684;23;20179;-87
2021/05/01 04:35:03;;;;;;;20.38;17.48;;;11.70;50.30;;;;;;6131876;23;20155;-88
2021/05/01 04:37:36;;;;;;;24.13;19.83;;;11.70;50.10;;;;;;6131690;23;20171;-88
2021/05/01 04:40:04;;;;;;;30.25;24.23;;;11.70;50.40;;;;;;6132285;23;20585;-88
2021/05/01 04:42:35;;;;;;;26.83;23.75;;;11.50;50.30;;;;;;6131895;23;20148;-89
2021/05/01 04:45:01;;;;;;;25.15;22.45;;;11.50;52.20;;;;;;6131847;23;20626;-89
2021/05/01 04:47:26;;;;;;;24.50;21.77;;;11.40;52.70;;;;;;6158017;23;20136;-89
2021/05/01 04:50:05;;;;;;;26.57;23.67;;;11.40;52.20;;;;;;6132267;23;20156;-87
2021/05/01 04:52:31;;;;;;;25.63;22.67;;;11.70;52.00;;;;;;6131812;23;20158;-88
2021/05/01 04:55:16;;;;;;;25.97;23.13;;;11.50;51.50;;;;;;6132075;23;20148;-88
2021/05/01 04:58:09;;;;;;;27.30;24.30;;;11.70;51.60;;;;;;6131357;23;20446;-88
2021/05/01 05:00:35;;;;;;;28.48;25.48;;;11.50;51.00;;;;;;6131691;23;20163;-88
2021/05/01 05:03:45;;;;;;;28.10;23.70;;;11.70;52.30;;;;;;6131954;23;20156;-88
2021/05/01 05:06:11;;;;;;;25.80;21.88;;;11.60;51.60;;;;;;6131874;23;20159;-89
2021/05/01 05:08:59;;;;;;;26.88;23.98;;;11.50;51.40;;;;;;6131334;23;20179;-88
2021/05/01 05:11:25;;;;;;;25.40;22.23;;;11.80;51.50;;;;;;6132958;23;20164;-88
2021/05/01 05:13:50;;;;;;;21.97;19.60;;;11.80;51.20;;;;;;6135472;23;20176;-91
2021/05/01 05:16:55;;;;;;;21.43;19.37;;;11.80;50.90;;;;;;6133366;23;20190;-88
2021/05/01 05:19:20;;;;;;;17.92;15.95;;;11.90;50.60;;;;;;6133583;23;20151;-88
2021/05/01 05:21:46;;;;;;;21.03;18.87;;;12.00;50.50;;;;;;6133596;23;20144;-91
2021/05/01 05:24:18;;;;;;;23.87;21.10;;;12.10;50.40;;;;;;6133879;23;20152;-87
2021/05/01 05:26:43;;;;;;;26.23;23.47;;;12.30;50.30;;;;;;6157729;23;20635;-89
2021/05/01 05:29:15;;;;;;;28.30;25.37;;;11.80;50.00;;;;;;6133459;23;20387;-91
2021/05/01 05:31:41;;;;;;;28.70;25.45;;;12.00;50.30;;;;;;6134488;23;20175;-91
2021/05/01 05:34:26;;;;;;;27.90;24.10;;;12.20;50.80;;;;;;6133334;23;20171;-90
2021/05/01 05:36:52;;;;;;;26.85;23.88;;;11.70;50.90;;;;;;6158985;23;20163;-90
2021/05/01 05:39:17;;;;;;;27.90;24.00;;;11.80;51.40;;;;;;6133333;23;20148;-90
2021/05/01 05:42:34;;;;;;;27.97;25.07;;;11.70;51.70;;;;;;6133757;23;20148;-89
2021/05/01 05:45:00;;;;;;;27.02;23.85;;;11.70;51.60;;;;;;6137185;23;20231;-91
2021/05/01 05:54:09;;;;;;;29.45;26.25;;;11.80;51.40;;;;;;6159738;23;20139;-88
2021/05/01 05:56:35;;;;;;;25.37;22.73;;;12.10;52.30;;;;;;6133196;23;20179;-88
2021/05/01 05:59:01;;;;;;;31.10;27.60;;;11.80;51.10;;;;;;6133467;23;20159;-88
2021/05/01 06:01:31;;;;;;;28.47;25.03;;;11.90;51.20;;;;;;6133449;23;20591;-88
2021/05/01 06:04:36;;;;;;;27.27;24.38;;;11.90;51.20;;;;;;6162240;23;20363;-91
2021/05/01 06:07:23;;;;;;;29.02;25.88;;;12.20;51.50;;;;;;6135183;23;20159;-88
2021/05/01 06:09:49;;;;;;;28.50;25.55;;;11.50;50.40;;;;;;6135028;23;20207;-88
2021/05/01 06:13:01;;;;;;;28.30;24.75;;;11.70;50.80;;;;;;6135517;23;20155;-90
2021/05/01 06:15:27;;;;;;;27.63;24.70;;;11.70;51.00;;;;;;6133760;23;20151;-89
2021/05/01 06:17:57;;;;;;;27.92;25.13;;;12.10;51.30;;;;;;6135161;23;20396;-94
2021/05/01 06:20:39;;;;;;;25.53;22.63;;;12.10;50.70;;;;;;6134498;23;20144;-91
2021/05/01 06:23:05;;;;;;;28.63;24.70;;;12.40;49.60;;;;;;6134237;23;20380;-89
2021/05/01 06:25:31;;;;;;;26.83;24.03;;;12.30;48.90;;;;;;6134433;23;20379;-89
2021/05/01 06:27:57;;;;;;;28.17;25.33;;;12.30;50.00;;;;;;6134484;23;20148;-89
2021/05/01 06:30:51;;;;;;;25.23;21.60;;;12.20;49.30;;;;;;6135174;23;20158;-89
2021/05/01 06:33:16;;;;;;;22.43;20.07;;;12.60;49.00;;;;;;6134526;23;20391;-89
2021/05/01 06:35:44;;;;;;;23.87;21.53;;;12.30;47.80;;;;;;6134470;23;20367;-90
2021/05/01 06:38:33;;;;;;;18.87;16.90;;;12.50;47.00;;;;;;6134201;23;20619;-89
2021/05/01 06:41:03;;;;;;;17.63;15.90;;;12.50;45.80;;;;;;6133903;23;20391;-88
2021/05/01 06:44:07;;;;;;;20.50;18.50;;;12.50;46.00;;;;;;6160039;23;20733;-89
2021/05/01 06:46:51;;;;;;;19.25;17.30;;;12.30;46.30;;;;;;6133491;23;20391;-89
2021/05/01 06:49:39;;;;;;;21.10;18.98;;;12.10;46.80;;;;;;6133767;23;20216;-88
2021/05/01 06:52:07;;;;;;;18.02;16.33;;;12.30;47.30;;;;;;6134047;23;20152;-89
2021/05/01 06:54:33;;;;;;;18.88;17.08;;;12.20;47.20;;;;;;6133881;23;20187;-89
2021/05/01 06:57:00;;;;;;;21.33;19.17;;;12.10;46.20;;;;;;6133072;23;20270;-89
2021/05/01 06:59:26;;;;;;;19.67;17.77;;;12.20;46.20;;;;;;6134140;23;20388;-89
2021/05/01 07:01:52;;;;;;;20.40;18.30;;;12.20;46.70;;;;;;6133729;23;20524;-89
2021/05/01 07:04:20;;;;;;;18.77;16.87;;;12.20;47.10;;;;;;6132958;23;20152;-89
2021/05/01 07:06:48;;;;;;;20.02;18.00;;;12.20;46.80;;;;;;6133936;23;20148;-89
2021/05/01 07:09:31;;;;;;;17.90;16.13;;;12.20;47.20;;;;;;6132854;23;20176;-88
2021/05/01 07:11:58;;;;;;;16.50;14.95;;;12.10;47.20;;;;;;6132610;23;20491;-88
2021/05/01 07:14:24;;;;;;;17.83;16.02;;;12.10;47.30;;;;;;6158721;23;20130;-88
2021/05/01 07:16:52;;;;;;;16.08;14.65;;;12.10;46.10;;;;;;6132641;23;20172;-84
2021/05/01 07:19:19;;;;;;;16.02;14.63;;;12.20;46.20;;;;;;6133211;23;20174;-86
2021/05/01 07:21:54;;;;;;;16.83;15.20;;;12.60;46.10;;;;;;6158958;23;20159;-87
2021/05/01 07:24:20;;;;;;;16.23;14.63;;;12.40;45.90;;;;;;6132926;23;20151;-89
2021/05/01 07:26:47;;;;;;;16.33;14.63;;;12.60;46.60;;;;;;6161100;23;20493;-88
2021/05/01 07:29:13;;;;;;;15.25;13.73;;;12.80;45.00;;;;;;6134371;23;20495;-88
2021/05/01 07:31:56;;;;;;;14.77;13.33;;;12.60;44.80;;;;;;6133627;23;20147;-91
2021/05/01 07:34:25;;;;;;;15.07;13.77;;;12.80;44.80;;;;;;6134660;23;20372;-90
2021/05/01 07:40:13;;;;;;;15.53;14.00;;;12.80;43.90;;;;;;6168911;23;20347;-92
2021/05/01 07:46:06;;;;;;;16.47;14.97;;;13.30;42.50;;;;;;6164309;23;20400;-94
2021/05/01 07:48:34;;;;;;;15.87;14.27;;;13.50;42.00;;;;;;6137502;23;20447;-93
2021/05/01 07:51:44;;;;;;;18.33;16.63;;;13.40;41.90;;;;;;6137821;23;20414;-93
2021/05/01 07:54:11;;;;;;;18.60;16.63;;;13.30;41.80;;;;;;6137681;23;20430;-93
2021/05/01 07:56:45;;;;;;;17.50;15.70;;;13.30;41.80;;;;;;6138139;23;20453;-93
2021/05/01 07:59:10;;;;;;;18.83;16.87;;;13.20;42.00;;;;;;6109201;23;20395;-93
2021/05/01 08:04:58;;;;;;;19.27;17.25;;;13.20;41.90;;;;;;6133614;23;20143;-94
2021/05/01 08:11:38;;;;;;;17.47;15.87;;;13.40;41.60;;;;;;6131867;23;20157;-94
2021/05/01 08:14:04;;;;;;;19.55;17.58;;;13.30;41.80;;;;;;6107251;23;20376;-94
2021/05/01 08:16:30;;;;;;;19.83;17.47;;;13.30;41.90;;;;;;6107040;23;20262;-94
2021/05/01 08:22:18;;;;;;;19.87;17.97;;;13.20;41.40;;;;;;6138585;23;20144;-95
2021/05/01 08:28:05;;;;;;;18.90;16.90;;;13.60;42.00;;;;;;6131907;23;20510;-93
2021/05/01 08:33:53;;;;;;;19.77;17.77;;;13.40;41.90;;;;;;6132722;23;20396;-94
2021/05/01 08:39:42;;;;;;;18.20;16.30;;;13.40;41.90;;;;;;6131841;23;20167;-94
2021/05/01 08:42:20;;;;;;;18.63;16.63;;;13.60;42.60;;;;;;6106593;23;20371;-94
2021/05/01 08:44:46;;;;;;;16.93;15.17;;;13.40;42.00;;;;;;6107994;23;20860;-95
2021/05/01 08:47:12;;;;;;;18.93;17.03;;;13.60;42.30;;;;;;6109462;23;20431;-94
2021/05/01 08:53:02;;;;;;;17.95;16.17;;;13.60;42.00;;;;;;6136789;23;20135;-93
2021/05/01 08:56:12;;;;;;;19.13;17.17;;;13.50;42.00;;;;;;6110144;23;20160;-93
2021/05/01 09:02:05;;;;;;;19.37;17.50;;;13.80;42.20;;;;;;6163796;23;20343;-93
2021/05/01 09:08:13;;;;;;;17.60;15.47;;;14.00;40.20;;;;;;6166072;23;20853;-95
2021/05/01 09:10:49;;;;;;;16.93;15.20;;;13.90;41.20;;;;;;6164676;23;20447;-95
2021/05/01 09:14:09;;;;;;;19.10;17.20;;;13.80;41.20;;;;;;6163950;23;20418;-94
2021/05/01 09:16:35;;;;;;;17.00;15.20;;;14.00;40.90;;;;;;6161764;23;20481;-94
2021/05/01 09:19:01;;;;;;;21.30;17.17;;;13.80;42.10;;;;;;6161673;23;20754;-90
2021/05/01 09:21:37;;;;;;;18.73;16.87;;;13.80;40.60;;;;;;6161792;23;20637;-92
2021/05/01 09:24:03;;;;;;;19.70;17.70;;;13.40;40.60;;;;;;6163962;23;20375;-95
2021/05/01 09:26:40;;;;;;;14.87;13.37;;;13.70;41.00;;;;;;6166080;23;20475;-94
2021/05/01 09:29:52;;;;;;;16.60;14.90;;;13.80;41.10;;;;;;6163660;23;20457;-95
2021/05/01 09:32:24;;;;;;;18.50;16.53;;;13.90;40.60;;;;;;6164051;23;20707;-94
2021/05/01 09:34:57;;;;;;;17.03;15.30;;;13.80;41.80;;;;;;6162542;23;20406;-94
2021/05/01 09:37:26;;;;;;;17.47;15.77;;;13.90;42.30;;;;;;6162815;23;20433;-93
2021/05/01 09:40:02;;;;;;;17.77;15.83;;;13.90;41.20;;;;;;6163151;23;20375;-93
2021/05/01 09:42:32;;;;;;;19.75;17.95;;;13.90;41.20;;;;;;6162169;23;20392;-91
2021/05/01 09:45:40;;;;;;;18.90;16.90;;;13.90;42.40;;;;;;6161840;23;20222;-90
2021/05/01 09:48:18;;;;;;;19.30;17.20;;;13.80;42.20;;;;;;6167045;23;20363;-91
2021/05/01 09:51:14;;;;;;;19.87;17.97;;;13.70;41.60;;;;;;6176605;23;20418;-92
2021/05/01 09:53:39;;;;;;;19.27;17.10;;;13.80;42.20;;;;;;6162335;23;20371;-90
2021/05/01 09:56:18;;;;;;;20.13;18.03;;;13.70;41.60;;;;;;6161382;23;20438;-89
2021/05/01 09:58:54;;;;;;;18.87;16.97;;;13.80;41.30;;;;;;6161798;23;20206;-90
2021/05/01 10:01:20;;;;;;;18.97;17.13;;;13.80;41.60;;;;;;6160602;23;20377;-91
2021/05/01 10:10:40;;;;;;;18.00;16.10;;;13.90;40.90;;;;;;6162636;23;20435;-89
2021/05/01 10:16:30;;;;;;;17.57;15.87;;;14.60;40.00;;;;;;6161487;23;20450;-92
2021/05/01 10:22:30;;;;;;;19.77;17.67;;;14.60;40.00;;;;;;6161750;23;20346;-92
2021/05/01 10:25:11;;;;;;;20.48;18.58;;;14.50;40.30;;;;;;6160037;23;20451;-91
2021/05/01 10:27:59;;;;;;;26.43;23.63;;;14.50;40.20;;;;;;6159755;23;20151;-90
2021/05/01 10:30:38;;;;;;;27.73;24.97;;;14.30;42.60;;;;;;6160086;23;20372;-92
2021/05/01 10:37:07;;;;;;;22.63;20.33;;;13.80;43.00;;;;;;6168514;23;20498;-95
2021/05/01 10:39:44;;;;;;;23.73;21.30;;;14.00;42.40;;;;;;6164324;23;20367;-92
2021/05/01 10:42:13;;;;;;;24.13;21.73;;;14.30;41.50;;;;;;6169605;23;20395;-95
2021/05/01 10:45:02;;;;;;;22.10;19.70;;;14.40;40.70;;;;;;6168141;23;20382;-92
2021/05/01 10:47:27;;;;;;;22.83;20.50;;;14.40;41.50;;;;;;6165631;23;20372;-92
2021/05/01 10:50:19;;;;;;;24.63;22.13;;;14.30;41.10;;;;;;6165484;23;20371;-91
2021/05/01 10:53:18;;;;;;;24.73;22.03;;;14.20;41.20;;;;;;6163932;23;20568;-89
2021/05/01 10:55:46;;;;;;;22.00;19.67;;;14.30;41.00;;;;;;6160472;23;20383;-90
2021/05/01 10:58:12;;;;;;;21.93;19.80;;;14.60;41.20;;;;;;6156952;23;20827;-90
2021/05/01 11:00:49;;;;;;;21.30;19.10;;;14.60;40.50;;;;;;6160046;23;20421;-91
2021/05/01 11:03:15;;;;;;;23.63;21.10;;;15.10;40.20;;;;;;6159885;23;20398;-91
2021/05/01 11:06:07;;;;;;;22.23;19.93;;;15.00;38.10;;;;;;6160551;23;20383;-91
2021/05/01 11:09:16;;;;;;;23.83;21.37;;;15.30;38.30;;;;;;6160490;23;20712;-91
2021/05/01 11:11:45;;;;;;;22.23;20.17;;;15.30;37.90;;;;;;6161983;23;20474;-90
2021/05/01 11:14:31;;;;;;;23.40;21.30;;;15.30;38.40;;;;;;6163681;23;20438;-91
2021/05/01 11:17:32;;;;;;;22.90;20.70;;;15.10;38.20;;;;;;6161058;23;20461;-89
2021/05/01 11:20:36;;;;;;;20.13;18.13;;;15.20;38.60;;;;;;6175027;23;20395;-91
2021/05/01 11:23:05;;;;;;;22.63;20.33;;;15.10;38.90;;;;;;6159140;23;20454;-90
2021/05/01 11:25:33;;;;;;;23.93;21.63;;;15.20;37.90;;;;;;6159904;23;20374;-91
2021/05/01 11:28:27;;;;;;;21.00;18.90;;;15.20;37.20;;;;;;6159408;23;20387;-91
2021/05/01 11:30:53;;;;;;;19.97;18.03;;;15.20;37.70;;;;;;6158781;23;20454;-90
2021/05/01 11:33:27;;;;;;;20.87;18.47;;;15.20;38.00;;;;;;6159163;23;20383;-90
2021/05/01 11:35:53;;;;;;;22.70;20.20;;;15.30;38.30;;;;;;6159340;23;20411;-90
2021/05/01 11:38:40;;;;;;;20.70;18.53;;;15.40;38.50;;;;;;6159381;23;20426;-90
2021/05/01 11:41:11;;;;;;;20.40;18.40;;;15.70;38.10;;;;;;6160448;23;20352;-90
2021/05/01 11:43:46;;;;;;;21.05;19.05;;;15.70;37.60;;;;;;6160784;23;20384;-90
2021/05/01 11:46:30;;;;;;;19.97;18.07;;;15.90;36.90;;;;;;6158670;23;20195;-91
2021/05/01 11:49:10;;;;;;;18.53;16.47;;;16.00;36.70;;;;;;6165341;23;20455;-95
2021/05/01 11:52:20;;;;;;;17.80;15.90;;;16.30;36.80;;;;;;6162090;23;20438;-89
2021/05/01 11:55:24;;;;;;;17.73;15.93;;;16.30;36.00;;;;;;6158305;23;20741;-90
2021/05/01 11:57:55;;;;;;;17.27;15.57;;;16.20;35.80;;;;;;6153836;23;20489;-90
2021/05/01 12:00:43;;;;;;;20.40;18.50;;;16.10;36.20;;;;;;6159492;23;20386;-93
2021/05/01 12:03:26;;;;;;;23.20;20.73;;;16.30;35.90;;;;;;6158775;23;20459;-89
2021/05/01 12:05:59;;;;;;;20.27;18.37;;;16.20;36.20;;;;;;6158178;23;20367;-92
2021/05/01 12:08:30;;;;;;;18.93;17.20;;;16.00;36.50;;;;;;6157880;23;20379;-91
2021/05/01 12:10:57;;;;;;;18.33;16.53;;;16.10;36.80;;;;;;6159374;23;20379;-90
2021/05/01 12:13:29;;;;;;;18.20;16.40;;;16.10;36.40;;;;;;6170369;23;20407;-94
2021/05/01 12:22:39;;;;;;;20.20;18.20;;;16.00;36.00;;;;;;6164498;23;20375;-94
2021/05/01 12:28:46;;;;;;;23.03;20.60;;;16.00;37.20;;;;;;6164640;23;20191;-94
2021/05/01 12:34:50;;;;;;;22.77;20.57;;;15.80;37.90;;;;;;6164767;23;20402;-92
2021/05/01 12:37:42;;;;;;;20.37;18.37;;;15.40;38.10;;;;;;6159611;23;20498;-93
2021/05/01 12:40:09;;;;;;;20.10;18.20;;;15.40;39.20;;;;;;6160868;23;20487;-94
2021/05/01 12:42:35;;;;;;;22.67;20.60;;;15.50;38.90;;;;;;6160469;23;20375;-92
2021/05/01 12:45:36;;;;;;;22.00;19.80;;;15.30;39.00;;;;;;6161198;23;20379;-91
2021/05/01 12:48:02;;;;;;;21.13;18.93;;;15.20;39.40;;;;;;6160584;23;20382;-92
2021/05/01 12:51:07;;;;;;;20.70;18.70;;;15.30;39.60;;;;;;6161707;23;20724;-94
2021/05/01 12:53:33;;;;;;;19.90;18.00;;;15.30;38.70;;;;;;6162585;23;20246;-94
2021/05/01 12:56:15;;;;;;;21.10;19.20;;;15.40;38.90;;;;;;6162997;23;20372;-91
2021/05/01 12:59:36;;;;;;;19.47;17.67;;;15.50;38.50;;;;;;6165090;23;20203;-92
2021/05/01 13:02:02;;;;;;;18.97;17.20;;;15.50;38.50;;;;;;6166699;23;20414;-94
2021/05/01 13:04:38;;;;;;;24.53;22.00;;;15.60;38.70;;;;;;6168565;23;20380;-95
2021/05/01 13:07:46;;;;;;;19.97;18.07;;;15.60;38.20;;;;;;6163156;23;20158;-94
2021/05/01 13:10:13;;;;;;;23.20;20.97;;;15.60;38.30;;;;;;6160433;23;20387;-92
2021/05/01 13:13:16;;;;;;;26.57;24.13;;;15.40;39.10;;;;;;6157130;23;20450;-87
2021/05/01 13:16:03;;;;;;;22.47;20.20;;;15.20;39.50;;;;;;6156587;23;20385;-87
2021/05/01 13:19:13;;;;;;;26.03;23.30;;;15.20;40.30;;;;;;6156982;23;20391;-87
2021/05/01 13:21:46;;;;;;;25.70;23.00;;;15.10;40.50;;;;;;6157508;23;20395;-87
2021/05/01 13:24:16;;;;;;;23.57;21.33;;;15.10;40.40;;;;;;6156835;23;20759;-87
2021/05/01 13:26:42;;;;;;;22.87;20.57;;;15.20;40.50;;;;;;6156987;23;20430;-88
2021/05/01 13:29:09;;;;;;;22.23;20.13;;;15.10;40.40;;;;;;6157702;23;20380;-87
2021/05/01 13:31:37;;;;;;;32.77;29.40;;;15.20;40.80;;;;;;6156990;23;20709;-87
2021/05/01 13:34:16;;;;;;;29.00;26.10;;;15.20;40.60;;;;;;6157033;23;20466;-88
2021/05/01 13:36:43;;;;;;;57.63;51.70;;;15.40;41.00;;;;;;6156276;23;20422;-88
2021/05/01 13:39:58;;;;;;;30.97;28.07;;;15.40;41.20;;;;;;6157419;23;20769;-88
2021/05/01 13:42:24;;;;;;;23.83;21.50;;;15.40;40.60;;;;;;6158813;23;20375;-89
2021/05/01 13:44:55;;;;;;;24.90;22.40;;;15.40;40.90;;;;;;6132004;23;20399;-90
2021/05/01 13:47:45;;;;;;;24.80;22.40;;;15.70;41.70;;;;;;6157763;23;20442;-88
2021/05/01 13:50:28;;;;;;;28.63;25.73;;;15.70;40.50;;;;;;6159426;23;20741;-87
2021/05/01 13:53:05;;;;;;;25.30;22.80;;;15.40;41.00;;;;;;6158071;23;20414;-87
2021/05/01 13:55:38;;;;;;;28.53;25.50;;;15.60;41.80;;;;;;6156366;23;20383;-87
2021/05/01 13:58:04;;;;;;;23.30;20.97;;;15.70;41.40;;;;;;6155881;23;20477;-87
2021/05/01 14:00:36;;;;;;;29.70;26.77;;;15.70;41.10;;;;;;6157324;23;20375;-88
2021/05/01 14:03:32;;;;;;;28.93;26.17;;;15.80;40.40;;;;;;6157205;23;20484;-88
2021/05/01 14:06:02;;;;;;;26.30;24.00;;;15.60;40.50;;;;;;6159484;23;20700;-93
2021/05/01 14:08:31;;;;;;;27.90;24.90;;;15.90;40.70;;;;;;6161062;23;20547;-93
2021/05/01 14:11:00;;;;;;;23.30;21.20;;;15.60;41.40;;;;;;6161826;23;20376;-90
2021/05/01 14:13:34;;;;;;;26.43;23.70;;;15.70;41.40;;;;;;6160195;23;20379;-87
2021/05/01 14:16:01;;;;;;;21.70;19.60;;;15.80;41.00;;;;;;6163181;23;20417;-90
2021/05/01 14:21:55;;;;;;;21.33;19.27;;;15.80;40.60;;;;;;6161028;23;20410;-88
2021/05/01 14:24:28;;;;;;;21.97;19.87;;;15.70;40.50;;;;;;6159177;23;20379;-89
2021/05/01 14:26:56;;;;;;;24.93;22.63;;;16.10;41.30;;;;;;6160663;23;20434;-92
2021/05/01 14:30:02;;;;;;;26.53;24.17;;;15.60;40.00;;;;;;6160494;23;20380;-88
2021/05/01 14:32:54;;;;;;;26.97;24.47;;;15.60;41.40;;;;;;6158969;23;20378;-89
2021/05/01 14:35:19;;;;;;;33.73;30.33;;;15.50;41.70;;;;;;6159581;23;20410;-88